Time,TemperatureF,DewpointF,PressureIn,WindDirection,WindDirectionDegrees,WindSpeedMPH,WindSpeedGustMPH,Humidity,HourlyPrecipIn,Conditions,Clouds,dailyrainin,SoftwareType,DateUTC
2013-05-14 00:05:00,48.2,-48.1,30.07,West,270,2.2,-999.0,1,-99.99,,,0.00,Acu-Link.com,2013-05-14 04:05:00,
2013-05-14 00:20:00,48.2,-48.1,30.07,West,270,4.2,-999.0,1,-99.99,,,0.00,Acu-Link.com,2013-05-14 04:20:00,
2013-05-14 00:36:00,48.2,-48.1,30.07,WNW,292,4.2,-999.0,1,-99.99,,,0.00,Acu-Link.com,2013-05-14 04:36:00,
2013-05-14 00:51:00,48.2,-48.1,30.08,West,270,2.7,-999.0,1,-99.99,,,0.00,Acu-Link.com,2013-05-14 04:51:00,
2013-05-14 01:06:00,47.8,-48.3,30.08,WSW,247,4.2,-999.0,1,-99.99,,,0.00,Acu-Link.com,2013-05-14 05:06:00,
2013-05-14 01:22:00,47.7,-48.4,30.08,NW,315,5.8,-999.0,1,-99.99,,,0.00,Acu-Link.com,2013-05-14 05:22:00,
2013-05-14 01:37:00,47.1,-48.7,30.08,West,270,3.7,-999.0,1,-99.99,,,0.00,Acu-Link.com,2013-05-14 05:37:00,
2013-05-14 01:52:00,46.9,-48.8,30.08,NNW,337,9.9,-999.0,1,-99.99,,,0.00,Acu-Link.com,2013-05-14 05:52:00,
2013-05-14 02:07:00,47.1,-48.7,30.08,West,270,4.2,-999.0,1,-99.99,,,0.00,Acu-Link.com,2013-05-14 06:07:00,
2013-05-14 02:22:00,46.9,-48.8,30.08,West,270,3.2,-999.0,1,-99.99,,,0.00,Acu-Link.com,2013-05-14 06:22:00,
2013-05-14 02:37:00,46.6,-49.0,30.08,WNW,292,3.7,-999.0,1,-99.99,,,0.00,Acu-Link.com,2013-05-14 06:37:00,
2013-05-14 02:53:00,46.0,-49.4,30.09,West,270,2.7,-999.0,1,-99.99,,,0.00,Acu-Link.com,2013-05-14 06:53:00,
2013-05-14 03:08:00,45.0,-50.0,30.10,West,270,3.7,-999.0,1,-99.99,,,0.00,Acu-Link.com,2013-05-14 07:08:00,
2013-05-14 03:23:00,44.2,-50.5,30.10,West,270,0.0,-999.0,1,-99.99,,,0.00,Acu-Link.com,2013-05-14 07:23:00,
2013-05-14 03:38:00,43.7,-50.8,30.10,West,270,1.1,-999.0,1,-99.99,,,0.00,Acu-Link.com,2013-05-14 07:38:00,
2013-05-14 03:54:00,43.2,-51.1,30.09,West,270,0.0,-999.0,1,-99.99,,,0.00,Acu-Link.com,2013-05-14 07:54:00,
2013-05-14 04:11:00,43.0,-51.2,30.09,West,270,0.0,-999.0,1,-99.99,,,0.00,Acu-Link.com,2013-05-14 08:11:00,
2013-05-14 04:26:00,42.8,-51.4,30.09,West,270,0.0,-999.0,1,-99.99,,,0.00,Acu-Link.com,2013-05-14 08:26:00,
2013-05-14 04:41:00,42.6,-51.5,30.09,West,270,0.0,-999.0,1,-99.99,,,0.00,Acu-Link.com,2013-05-14 08:41:00,
2013-05-14 04:56:00,41.7,-17.8,30.09,SW,225,0.0,-999.0,7,-99.99,,,0.00,Acu-Link.com,2013-05-14 08:56:00,
2013-05-14 05:11:00,41.4,-52.2,30.10,SW,225,0.0,-999.0,1,-99.99,,,0.00,Acu-Link.com,2013-05-14 09:11:00,
2013-05-14 05:26:00,40.8,-52.6,30.10,WSW,247,2.2,-999.0,1,-99.99,,,0.00,Acu-Link.com,2013-05-14 09:26:00,
2013-05-14 05:42:00,40.6,-52.7,30.10,WNW,292,0.0,-999.0,1,-99.99,,,0.00,Acu-Link.com,2013-05-14 09:42:00,
2013-05-14 05:57:00,40.5,-52.8,30.11,WNW,292,0.0,-999.0,1,-99.99,,,0.00,Acu-Link.com,2013-05-14 09:57:00,
2013-05-14 06:12:00,40.3,-52.9,30.11,NW,315,0.0,-999.0,1,-99.99,,,0.00,Acu-Link.com,2013-05-14 10:12:00,
2013-05-14 06:27:00,41.0,-52.5,30.12,NNW,337,0.0,-999.0,1,-99.99,,,0.00,Acu-Link.com,2013-05-14 10:27:00,
2013-05-14 06:42:00,41.7,-52.1,30.12,North,0,5.8,-999.0,1,-99.99,,,0.00,Acu-Link.com,2013-05-14 10:42:00,
2013-05-14 06:57:00,43.5,-50.9,30.12,WNW,292,2.7,-999.0,1,-99.99,,,0.00,Acu-Link.com,2013-05-14 10:57:00,
2013-05-14 07:12:00,45.0,44.5,30.13,WNW,292,4.7,-999.0,98,-99.99,,,0.00,Acu-Link.com,2013-05-14 11:12:00,
2013-05-14 07:28:00,46.2,-37.6,30.13,WNW,292,8.3,-999.0,2,-99.99,,,0.00,Acu-Link.com,2013-05-14 11:28:00,
2013-05-14 07:43:00,48.4,-47.9,30.14,North,0,6.8,-999.0,1,-99.99,,,0.00,Acu-Link.com,2013-05-14 11:43:00,
2013-05-14 07:58:00,50.4,-46.7,30.14,North,0,5.3,-999.0,1,-99.99,,,0.00,Acu-Link.com,2013-05-14 11:58:00,
2013-05-14 08:13:00,51.8,-45.8,30.14,North,0,6.8,-999.0,1,-99.99,,,0.00,Acu-Link.com,2013-05-14 12:13:00,
2013-05-14 08:29:00,53.4,-44.9,30.14,NW,315,3.7,-999.0,1,-99.99,,,0.00,Acu-Link.com,2013-05-14 12:29:00,
2013-05-14 08:44:00,54.1,-44.4,30.14,NW,315,3.7,-999.0,1,-99.99,,,0.00,Acu-Link.com,2013-05-14 12:44:00,
2013-05-14 08:59:00,53.8,-44.6,30.13,WNW,292,6.3,-999.0,1,-99.99,,,0.00,Acu-Link.com,2013-05-14 12:59:00,
2013-05-14 09:14:00,53.4,-44.9,30.13,NNW,337,4.7,-999.0,1,-99.99,,,0.00,Acu-Link.com,2013-05-14 13:14:00,
2013-05-14 09:29:00,55.0,-43.9,30.13,West,270,6.8,-999.0,1,-99.99,,,0.00,Acu-Link.com,2013-05-14 13:29:00,
2013-05-14 09:44:00,54.3,-44.3,30.13,WNW,292,2.7,-999.0,1,-99.99,,,0.00,Acu-Link.com,2013-05-14 13:44:00,
2013-05-14 10:00:00,55.2,5.2,30.13,NW,315,4.2,-999.0,13,-99.99,,,0.00,Acu-Link.com,2013-05-14 14:00:00,
2013-05-14 10:15:00,55.0,54.4,30.13,NNW,337,11.4,-999.0,98,-99.99,,,0.00,Acu-Link.com,2013-05-14 14:15:00,
2013-05-14 10:30:00,56.1,52.9,30.13,WSW,247,5.3,-999.0,89,-99.99,,,0.00,Acu-Link.com,2013-05-14 14:30:00,
2013-05-14 10:46:00,57.4,21.9,30.13,WNW,292,6.3,-999.0,25,-99.99,,,0.00,Acu-Link.com,2013-05-14 14:46:00,
2013-05-14 11:01:00,56.7,56.1,30.13,NNE,22,5.8,-999.0,98,-99.99,,,0.00,Acu-Link.com,2013-05-14 15:01:00,
2013-05-14 11:16:00,56.8,56.2,30.12,West,270,4.2,-999.0,98,-99.99,,,0.00,Acu-Link.com,2013-05-14 15:16:00,
2013-05-14 11:32:00,57.7,38.1,30.12,North,0,5.8,-999.0,48,-99.99,,,0.00,Acu-Link.com,2013-05-14 15:32:00,
2013-05-14 11:47:00,59.4,58.8,30.12,West,270,6.8,-999.0,98,-99.99,,,0.00,Acu-Link.com,2013-05-14 15:47:00,
2013-05-14 12:02:00,59.4,58.8,30.11,WNW,292,5.8,-999.0,98,-99.99,,,0.00,Acu-Link.com,2013-05-14 16:02:00,
2013-05-14 12:17:00,60.8,60.2,30.11,WSW,247,11.4,-999.0,98,-99.99,,,0.00,Acu-Link.com,2013-05-14 16:17:00,
2013-05-14 12:32:00,60.3,59.7,30.10,WSW,247,4.7,-999.0,98,-99.99,,,0.00,Acu-Link.com,2013-05-14 16:32:00,
2013-05-14 12:47:00,58.8,58.2,30.10,NNW,337,3.2,-999.0,98,-99.99,,,0.00,Acu-Link.com,2013-05-14 16:47:00,
2013-05-14 13:02:00,60.4,59.8,30.10,West,270,5.3,-999.0,98,-99.99,,,0.00,Acu-Link.com,2013-05-14 17:02:00,
2013-05-14 13:18:00,61.3,60.7,30.10,WNW,292,5.3,-999.0,98,-99.99,,,0.00,Acu-Link.com,2013-05-14 17:18:00,
2013-05-14 13:33:00,61.5,60.9,30.09,NW,315,5.3,-999.0,98,-99.99,,,0.00,Acu-Link.com,2013-05-14 17:33:00,
2013-05-14 13:48:00,61.5,60.9,30.09,West,270,3.7,-999.0,98,-99.99,,,0.00,Acu-Link.com,2013-05-14 17:48:00,
2013-05-14 14:03:00,57.4,-42.4,30.09,SSW,202,2.2,-999.0,1,-99.99,,,0.00,Acu-Link.com,2013-05-14 18:03:00,
2013-05-14 14:19:00,58.3,-41.9,30.09,ESE,112,3.7,-999.0,1,-99.99,,,0.00,Acu-Link.com,2013-05-14 18:19:00,
2013-05-14 14:34:00,58.3,-41.9,30.09,SE,135,3.2,-999.0,1,-99.99,,,0.00,Acu-Link.com,2013-05-14 18:34:00,
2013-05-14 14:49:00,59.5,-41.2,30.08,East,90,2.2,-999.0,1,-99.99,,,0.00,Acu-Link.com,2013-05-14 18:49:00,
2013-05-14 15:05:00,59.5,-41.2,30.07,SW,225,4.2,-999.0,1,-99.99,,,0.00,Acu-Link.com,2013-05-14 19:05:00,
2013-05-14 15:20:00,59.9,-40.9,30.07,SSE,157,6.3,-999.0,1,-99.99,,,0.00,Acu-Link.com,2013-05-14 19:20:00,
2013-05-14 15:35:00,57.9,-42.1,30.06,SE,135,5.3,-999.0,1,-99.99,,,0.00,Acu-Link.com,2013-05-14 19:35:00,
2013-05-14 15:51:00,57.9,-42.1,30.06,SSE,157,5.8,-999.0,1,-99.99,,,0.00,Acu-Link.com,2013-05-14 19:51:00,
2013-05-14 16:06:00,57.4,-42.4,30.06,South,180,6.8,-999.0,1,-99.99,,,0.00,Acu-Link.com,2013-05-14 20:06:00,
2013-05-14 16:21:00,57.0,-42.7,30.06,South,180,5.3,-999.0,1,-99.99,,,0.00,Acu-Link.com,2013-05-14 20:21:00,
2013-05-14 16:36:00,56.3,-43.1,30.05,SSE,157,5.3,-999.0,1,-99.99,,,0.00,Acu-Link.com,2013-05-14 20:36:00,
2013-05-14 16:51:00,55.8,-43.4,30.05,SSE,157,4.7,-999.0,1,-99.99,,,0.00,Acu-Link.com,2013-05-14 20:51:00,
2013-05-14 17:06:00,56.1,-43.2,30.05,ENE,67,3.2,-999.0,1,-99.99,,,0.00,Acu-Link.com,2013-05-14 21:06:00,
2013-05-14 17:21:00,57.9,-42.1,30.05,South,180,4.7,-999.0,1,-99.99,,,0.00,Acu-Link.com,2013-05-14 21:21:00,
2013-05-14 17:36:00,58.3,-41.9,30.04,SSE,157,4.2,-999.0,1,-99.99,,,0.00,Acu-Link.com,2013-05-14 21:36:00,
2013-05-14 17:51:00,56.3,-43.1,30.04,South,180,5.3,-999.0,1,-99.99,,,0.00,Acu-Link.com,2013-05-14 21:51:00,
2013-05-14 18:07:00,57.4,-42.4,30.03,SSE,157,4.7,-999.0,1,-99.99,,,0.00,Acu-Link.com,2013-05-14 22:07:00,
2013-05-14 18:22:00,56.8,-42.8,30.03,ESE,112,5.8,-999.0,1,-99.99,,,0.00,Acu-Link.com,2013-05-14 22:22:00,
2013-05-14 18:38:00,56.7,-42.9,30.02,SE,135,3.2,-999.0,1,-99.99,,,0.00,Acu-Link.com,2013-05-14 22:38:00,
2013-05-14 18:53:00,57.0,-42.7,30.03,South,180,4.2,-999.0,1,-99.99,,,0.00,Acu-Link.com,2013-05-14 22:53:00,
2013-05-14 19:08:00,56.3,-43.1,30.03,ESE,112,5.3,-999.0,1,-99.99,,,0.00,Acu-Link.com,2013-05-14 23:08:00,
2013-05-14 19:24:00,55.4,-43.7,30.04,ESE,112,3.7,-999.0,1,-99.99,,,0.00,Acu-Link.com,2013-05-14 23:24:00,
2013-05-14 19:39:00,54.9,-44.0,30.04,East,90,2.7,-999.0,1,-99.99,,,0.00,Acu-Link.com,2013-05-14 23:39:00,
2013-05-14 19:54:00,54.7,-44.1,30.04,ESE,112,4.2,-999.0,1,-99.99,,,0.00,Acu-Link.com,2013-05-14 23:54:00,
2013-05-14 20:09:00,54.5,-44.2,30.03,ESE,112,2.7,-999.0,1,-99.99,,,0.00,Acu-Link.com,2013-05-15 00:09:00,
2013-05-14 20:24:00,54.5,-44.2,30.03,SSE,157,3.7,-999.0,1,-99.99,,,0.00,Acu-Link.com,2013-05-15 00:24:00,
2013-05-14 20:39:00,54.9,-44.0,30.03,ESE,112,4.2,-999.0,1,-99.99,,,0.00,Acu-Link.com,2013-05-15 00:39:00,
2013-05-14 20:55:00,54.9,-44.0,30.03,SSW,202,4.2,-999.0,1,-99.99,,,0.00,Acu-Link.com,2013-05-15 00:55:00,
2013-05-14 21:10:00,55.0,52.4,30.03,South,180,4.7,-999.0,91,-99.99,,,0.00,Acu-Link.com,2013-05-15 01:10:00,
2013-05-14 21:25:00,55.2,-43.8,30.03,SE,135,3.2,-999.0,1,-99.99,,,0.00,Acu-Link.com,2013-05-15 01:25:00,
2013-05-14 21:41:00,55.8,-43.4,30.03,SSW,202,3.7,-999.0,1,-99.99,,,0.00,Acu-Link.com,2013-05-15 01:41:00,
2013-05-14 21:56:00,55.8,-43.4,30.04,SW,225,3.7,-999.0,1,-99.99,,,0.00,Acu-Link.com,2013-05-15 01:56:00,
2013-05-14 22:11:00,55.8,-43.4,30.05,West,270,1.7,-999.0,1,-99.99,,,0.00,Acu-Link.com,2013-05-15 02:11:00,
2013-05-14 22:26:00,55.6,-43.5,30.06,West,270,1.7,-999.0,1,-99.99,,,0.00,Acu-Link.com,2013-05-15 02:26:00,
2013-05-14 22:41:00,55.9,54.5,30.07,West,270,3.7,-999.0,95,-99.99,,,0.00,Acu-Link.com,2013-05-15 02:41:00,
2013-05-14 22:57:00,55.9,53.6,30.07,SSW,202,2.2,-999.0,92,-99.99,,,0.00,Acu-Link.com,2013-05-15 02:57:00,
2013-05-14 23:12:00,55.2,-43.8,30.06,SSW,202,3.2,-999.0,1,-99.99,,,0.00,Acu-Link.com,2013-05-15 03:12:00,
2013-05-14 23:27:00,55.0,-43.9,30.06,SSW,202,2.7,-999.0,1,-99.99,,,0.00,Acu-Link.com,2013-05-15 03:27:00,
2013-05-14 23:43:00,55.6,-43.5,30.06,SW,225,5.3,-999.0,1,-99.99,,,0.00,Acu-Link.com,2013-05-15 03:43:00,
2013-05-14 23:58:00,54.1,-44.4,30.05,SSE,157,0.0,-999.0,1,-99.99,,,0.00,Acu-Link.com,2013-05-15 03:58:00,